createdAt,value
2023-05-08T00:04:56.237Z,24.02
2023-05-08T00:09:58.576Z,23.99
2023-05-08T00:15:00.926Z,24.00
2023-05-08T00:20:03.732Z,24.00
2023-05-08T00:25:06.279Z,24.00
2023-05-08T00:30:08.862Z,24.00
2023-05-08T00:35:10.694Z,23.98
2023-05-08T00:40:12.995Z,23.99
2023-05-08T00:45:15.143Z,23.98
2023-05-08T00:50:17.705Z,24.01
2023-05-08T00:55:19.937Z,23.99
2023-05-08T01:00:23.477Z,24.01
2023-05-08T01:05:25.604Z,23.99
2023-05-08T01:10:38.704Z,23.99
2023-05-08T01:15:51.477Z,23.98
2023-05-08T01:21:09.121Z,23.98
2023-05-08T01:26:42.558Z,23.95
2023-05-08T01:32:06.371Z,23.98
2023-05-08T01:37:13.392Z,23.99
2023-05-08T01:42:49.898Z,23.99
2023-05-08T01:48:08.627Z,23.98
2023-05-08T01:53:20.537Z,23.97
2023-05-08T01:58:24.784Z,23.98
2023-05-08T02:03:28.101Z,23.98
2023-05-08T02:08:31.373Z,23.97
2023-05-08T02:13:35.292Z,23.98
2023-05-08T02:18:41.253Z,23.99
2023-05-08T02:23:45.677Z,24.01
2023-05-08T02:28:50.067Z,24.00
2023-05-08T02:33:54.145Z,24.01
2023-05-08T02:38:59.195Z,23.96
2023-05-08T02:44:01.539Z,24.01
2023-05-08T02:49:20.907Z,23.98
2023-05-08T02:54:31.963Z,23.98
2023-05-08T02:59:44.866Z,24.01
2023-05-08T03:05:00.032Z,24.02
2023-05-08T03:10:10.995Z,24.03
2023-05-08T03:15:26.755Z,23.98
2023-05-08T03:20:34.234Z,24.02
2023-05-08T03:25:39.193Z,24.04
2023-05-08T03:30:42.159Z,24.03
2023-05-08T03:35:45.520Z,24.05
2023-05-08T03:40:47.886Z,24.02
2023-05-08T03:45:51.388Z,24.03
2023-05-08T03:50:54.061Z,24.05
2023-05-08T03:55:58.113Z,24.00
2023-05-08T04:01:13.073Z,24.04
2023-05-08T04:06:30.710Z,24.04
2023-05-08T04:11:38.021Z,24.04
2023-05-08T04:16:46.207Z,24.03
2023-05-08T04:21:50.581Z,24.04
2023-05-08T04:26:53.257Z,24.04
2023-05-08T04:31:57.529Z,24.01
2023-05-08T04:36:59.698Z,24.04
2023-05-08T04:42:03.984Z,24.02
2023-05-08T04:47:06.191Z,24.04
2023-05-08T04:52:08.250Z,24.06
2023-05-08T04:57:10.151Z,24.07
2023-05-08T05:02:12.028Z,24.06
2023-05-08T05:07:14.119Z,24.02
2023-05-08T05:12:16.136Z,24.03
2023-05-08T05:17:18.119Z,24.06
2023-05-08T05:22:20.001Z,24.03
2023-05-08T05:27:22.078Z,24.01
2023-05-08T05:32:24.033Z,24.01
2023-05-08T05:37:25.994Z,24.00
2023-05-08T05:42:28.040Z,24.04
2023-05-08T05:47:30.306Z,24.00
2023-05-08T05:52:33.585Z,24.03
2023-05-08T05:57:35.567Z,24.00
2023-05-08T06:02:37.853Z,24.01
2023-05-08T06:07:40.208Z,23.99
2023-05-08T06:12:42.550Z,23.97
2023-05-08T06:17:44.516Z,23.96
2023-05-08T06:22:46.747Z,23.92
2023-05-08T06:27:48.953Z,23.93
2023-05-08T06:32:50.987Z,23.94
2023-05-08T06:37:52.982Z,23.98
2023-05-08T06:42:55.293Z,24.00
2023-05-08T06:47:57.303Z,23.94
2023-05-08T06:52:59.395Z,24.00
2023-05-08T06:58:01.567Z,24.01
2023-05-08T07:03:03.619Z,23.99
2023-05-08T07:08:05.668Z,24.05
2023-05-08T07:13:07.601Z,24.12
2023-05-08T07:18:09.819Z,24.04
2023-05-08T07:23:11.959Z,24.03
2023-05-08T07:28:14.188Z,24.04
2023-05-08T07:33:16.354Z,24.05
2023-05-08T07:38:18.699Z,24.03
2023-05-08T07:43:20.578Z,23.89
2023-05-08T07:48:22.404Z,23.85
2023-05-08T07:53:24.327Z,23.86
2023-05-08T07:58:26.507Z,23.83
2023-05-08T08:03:28.484Z,23.84
2023-05-08T08:08:30.622Z,23.85
2023-05-08T08:13:33.332Z,23.81
2023-05-08T08:18:38.773Z,23.90
2023-05-08T08:23:40.735Z,23.81
2023-05-08T08:28:42.597Z,23.87
2023-05-08T08:33:45.198Z,23.89
2023-05-08T08:38:47.504Z,24.00
2023-05-08T08:43:49.484Z,23.94
2023-05-08T08:48:53.501Z,23.95
2023-05-08T08:54:08.206Z,23.93
2023-05-08T08:59:12.649Z,23.88
2023-05-08T09:04:14.799Z,23.91
2023-05-08T09:09:16.803Z,23.85
2023-05-08T09:14:19.396Z,23.91
2023-05-08T09:19:24.949Z,23.92
2023-05-08T09:25:08.065Z,23.91
2023-05-08T09:30:13.042Z,23.88
2023-05-08T09:35:15.366Z,23.85
2023-05-08T09:40:22.573Z,23.84
2023-05-08T09:45:28.809Z,23.82
2023-05-08T09:50:31.913Z,23.79
2023-05-08T09:55:47.920Z,23.75
2023-05-08T10:00:49.942Z,23.79
2023-05-08T10:05:51.909Z,23.81
2023-05-08T10:10:54.068Z,23.81
2023-05-08T10:15:57.245Z,23.80
2023-05-08T10:21:05.790Z,23.82
2023-05-08T10:26:12.847Z,23.82
2023-05-08T10:31:18.702Z,23.82
2023-05-08T10:36:21.655Z,23.77
2023-05-08T10:41:27.233Z,23.79
2023-05-08T10:46:49.343Z,23.78
2023-05-08T10:52:08.104Z,23.80
2023-05-08T10:57:11.334Z,23.80
2023-05-08T11:02:13.582Z,23.81
2023-05-08T11:07:15.727Z,23.83
2023-05-08T11:12:28.272Z,23.85
2023-05-08T11:17:30.699Z,23.86
2023-05-08T11:22:37.312Z,23.90
2023-05-08T11:27:51.266Z,23.87
2023-05-08T11:33:09.751Z,23.89
2023-05-08T11:38:20.231Z,23.94
2023-05-08T11:43:26.575Z,23.82
2023-05-08T11:48:28.705Z,23.78
2023-05-08T11:53:31.765Z,23.93
2023-05-08T11:58:33.763Z,23.97
2023-05-08T12:03:36.170Z,24.00
2023-05-08T12:08:39.844Z,23.97
2023-05-08T12:13:41.996Z,23.77
2023-05-08T12:18:44.432Z,23.88
2023-05-08T12:23:46.850Z,23.98
2023-05-08T12:28:55.944Z,24.00
2023-05-08T12:33:58.701Z,24.03
2023-05-08T12:39:18.406Z,24.02
2023-05-08T12:44:25.055Z,24.03
2023-05-08T12:49:31.050Z,24.14
2023-05-08T12:54:34.573Z,24.06
2023-05-08T12:59:36.681Z,24.09
2023-05-08T13:04:39.110Z,24.08
2023-05-08T13:09:56.956Z,24.06
2023-05-08T13:14:58.939Z,24.11
2023-05-08T13:20:01.627Z,24.13
2023-05-08T13:25:04.802Z,24.13
2023-05-08T13:30:07.473Z,24.13
2023-05-08T13:35:09.530Z,24.15
2023-05-08T13:40:12.353Z,24.14
2023-05-08T13:45:15.253Z,24.13
2023-05-08T13:50:19.857Z,24.29
2023-05-08T13:55:23.304Z,24.21
2023-05-08T14:00:27.960Z,24.30
2023-05-08T14:05:30.516Z,24.20
2023-05-08T14:10:32.668Z,24.38
2023-05-08T14:15:37.341Z,24.42
2023-05-08T14:20:39.933Z,24.42
2023-05-08T14:25:41.885Z,24.40
2023-05-08T14:30:43.946Z,24.42
2023-05-08T14:35:48.472Z,24.41
2023-05-08T14:40:51.580Z,24.38
2023-05-08T14:45:54.299Z,24.36
2023-05-08T14:51:01.838Z,24.37
2023-05-08T14:56:04.340Z,24.32
2023-05-08T15:01:07.163Z,24.34
2023-05-08T15:06:09.540Z,24.30
2023-05-08T15:11:11.538Z,24.30
2023-05-08T15:16:13.539Z,24.28
2023-05-08T15:21:15.757Z,24.40
2023-05-08T15:26:17.807Z,24.49
2023-05-08T15:31:20.081Z,24.42
2023-05-08T15:36:22.094Z,24.48
2023-05-08T15:41:24.263Z,24.48
2023-05-08T15:46:26.429Z,24.52
2023-05-08T15:51:29.262Z,24.52
2023-05-08T15:56:31.175Z,24.46
2023-05-08T16:01:33.466Z,24.34
2023-05-08T16:06:35.583Z,24.30
2023-05-08T16:11:37.823Z,24.23
2023-05-08T16:16:40.476Z,24.26
2023-05-08T16:21:42.520Z,24.28
2023-05-08T16:26:44.579Z,24.30
2023-05-08T16:31:46.457Z,24.27
2023-05-08T16:36:48.499Z,24.24
2023-05-08T16:41:50.562Z,24.26
2023-05-08T16:46:52.784Z,24.28
2023-05-08T16:51:55.424Z,24.28
2023-05-08T16:56:57.569Z,24.29
2023-05-08T17:01:59.785Z,24.27
2023-05-08T17:07:01.796Z,24.27
2023-05-08T17:12:03.817Z,24.27
2023-05-08T17:17:06.538Z,24.26
2023-05-08T17:22:08.660Z,24.24
2023-05-08T17:27:11.050Z,24.22
2023-05-08T17:32:13.440Z,24.25
2023-05-08T17:37:15.641Z,24.24
2023-05-08T17:42:17.752Z,24.27
2023-05-08T17:47:19.900Z,24.25
2023-05-08T17:52:22.101Z,24.29
2023-05-08T17:57:24.278Z,24.29
2023-05-08T18:02:26.438Z,24.26
2023-05-08T18:07:28.711Z,24.22
2023-05-08T18:12:32.300Z,24.21
2023-05-08T18:17:34.488Z,24.22
2023-05-08T18:22:36.856Z,24.24
2023-05-08T18:27:40.126Z,24.24
2023-05-08T18:32:42.410Z,24.17
2023-05-08T18:37:44.554Z,24.24
2023-05-08T18:42:46.851Z,24.23
2023-05-08T18:47:49.407Z,24.24
2023-05-08T18:52:51.704Z,24.22
2023-05-08T18:57:54.520Z,24.27
2023-05-08T19:02:58.470Z,24.24
2023-05-08T19:08:00.709Z,24.27
2023-05-08T19:13:02.920Z,24.24
2023-05-08T19:18:05.494Z,24.27
2023-05-08T19:23:07.849Z,24.28
2023-05-08T19:28:10.145Z,24.26
2023-05-08T19:33:12.296Z,24.23
2023-05-08T19:38:15.194Z,24.24
2023-05-08T19:43:17.620Z,24.27
2023-05-08T19:48:20.469Z,24.29
2023-05-08T19:53:23.580Z,24.28
2023-05-08T19:58:25.537Z,24.30
2023-05-08T20:03:27.849Z,24.22
2023-05-08T20:08:30.086Z,24.29
2023-05-08T20:13:32.202Z,24.28
2023-05-08T20:18:35.764Z,24.31
2023-05-08T20:23:39.956Z,24.33
2023-05-08T20:28:42.009Z,24.28
2023-05-08T20:33:44.112Z,24.30
2023-05-08T20:38:46.066Z,24.32
2023-05-08T20:43:48.338Z,24.33
2023-05-08T20:48:51.562Z,24.31
2023-05-08T20:53:53.671Z,24.31
2023-05-08T20:58:55.757Z,24.28
2023-05-08T21:03:57.812Z,24.29
2023-05-08T21:08:59.791Z,24.28
2023-05-08T21:14:01.806Z,24.29
2023-05-08T21:19:03.738Z,24.28
2023-05-08T21:24:05.897Z,24.29
2023-05-08T21:29:07.911Z,24.30
2023-05-08T21:34:09.944Z,24.27
2023-05-08T21:39:12.104Z,24.27
2023-05-08T21:44:15.825Z,24.29
2023-05-08T21:49:18.004Z,24.26
2023-05-08T21:54:23.508Z,24.33
2023-05-08T21:59:25.487Z,24.30
2023-05-08T22:04:27.670Z,24.28
2023-05-08T22:09:29.662Z,24.34
2023-05-08T22:14:31.730Z,24.30
2023-05-08T22:19:33.604Z,24.27
2023-05-08T22:24:35.827Z,24.26
2023-05-08T22:29:37.973Z,24.30
2023-05-08T22:34:40.062Z,24.27
2023-05-08T22:39:41.962Z,24.28
2023-05-08T22:44:44.646Z,24.31
2023-05-08T22:49:48.489Z,24.27
2023-05-08T22:54:50.707Z,24.27
2023-05-08T22:59:52.658Z,24.28
2023-05-08T23:04:56.199Z,24.26
2023-05-08T23:09:58.277Z,24.29
2023-05-08T23:15:00.692Z,24.26
2023-05-08T23:20:02.781Z,24.27
2023-05-08T23:25:05.306Z,24.25
2023-05-08T23:30:07.925Z,24.24
2023-05-08T23:35:10.232Z,24.28
2023-05-08T23:40:12.597Z,24.27
2023-05-08T23:45:14.825Z,24.29
2023-05-08T23:50:17.103Z,24.30
2023-05-08T23:55:19.129Z,24.27
